sensor_id;sensor_type;location;lat;lon;timestamp;P1;durP1;ratioP1;P2;durP2;ratioP2
36433;SDS011;31691;51.972;5.672;2023-08-06T00:07:11;13.02;;;11.73;;
36433;SDS011;31691;51.972;5.672;2023-08-06T00:17:16;12.98;;;11.55;;
36433;SDS011;31691;51.972;5.672;2023-08-06T00:22:18;13.57;;;12.35;;
36433;SDS011;31691;51.972;5.672;2023-08-06T00:32:23;14.98;;;12.65;;
36433;SDS011;31691;51.972;5.672;2023-08-06T00:42:27;14.57;;;13.38;;
36433;SDS011;31691;51.972;5.672;2023-08-06T00:52:31;16.13;;;14.63;;
36433;SDS011;31691;51.972;5.672;2023-08-06T00:57:34;19.35;;;17.65;;
36433;SDS011;31691;51.972;5.672;2023-08-06T01:02:36;20.05;;;18.35;;
36433;SDS011;31691;51.972;5.672;2023-08-06T01:08:43;20.08;;;18.13;;
36433;SDS011;31691;51.972;5.672;2023-08-06T01:13:30;19.60;;;17.85;;
36433;SDS011;31691;51.972;5.672;2023-08-06T01:18:39;21.67;;;19.60;;
36433;SDS011;31691;51.972;5.672;2023-08-06T01:23:43;22.42;;;20.42;;
36433;SDS011;31691;51.972;5.672;2023-08-06T01:28:48;23.13;;;20.77;;
36433;SDS011;31691;51.972;5.672;2023-08-06T01:34:01;27.13;;;21.73;;
36433;SDS011;31691;51.972;5.672;2023-08-06T01:39:06;24.67;;;22.30;;
36433;SDS011;31691;51.972;5.672;2023-08-06T01:44:08;25.02;;;22.52;;
36433;SDS011;31691;51.972;5.672;2023-08-06T01:49:11;24.10;;;21.75;;
36433;SDS011;31691;51.972;5.672;2023-08-06T01:59:15;25.77;;;23.25;;
36433;SDS011;31691;51.972;5.672;2023-08-06T02:09:19;22.10;;;19.85;;
36433;SDS011;31691;51.972;5.672;2023-08-06T02:19:23;20.67;;;18.23;;
36433;SDS011;31691;51.972;5.672;2023-08-06T02:29:28;21.60;;;19.38;;
36433;SDS011;31691;51.972;5.672;2023-08-06T02:39:32;21.48;;;19.23;;
36433;SDS011;31691;51.972;5.672;2023-08-06T02:44:35;23.95;;;19.20;;
36433;SDS011;31691;51.972;5.672;2023-08-06T02:49:37;21.63;;;18.65;;
36433;SDS011;31691;51.972;5.672;2023-08-06T02:59:42;22.00;;;19.55;;
36433;SDS011;31691;51.972;5.672;2023-08-06T03:09:46;20.65;;;18.45;;
36433;SDS011;31691;51.972;5.672;2023-08-06T03:19:50;22.52;;;19.17;;
36433;SDS011;31691;51.972;5.672;2023-08-06T03:29:54;24.13;;;19.90;;
36433;SDS011;31691;51.972;5.672;2023-08-06T03:34:57;23.27;;;20.02;;
36433;SDS011;31691;51.972;5.672;2023-08-06T03:45:01;22.55;;;20.13;;
36433;SDS011;31691;51.972;5.672;2023-08-06T03:50:03;25.23;;;20.55;;
36433;SDS011;31691;51.972;5.672;2023-08-06T03:55:06;23.98;;;21.48;;
36433;SDS011;31691;51.972;5.672;2023-08-06T04:00:08;23.88;;;21.48;;
36433;SDS011;31691;51.972;5.672;2023-08-06T04:05:11;22.17;;;19.88;;
36433;SDS011;31691;51.972;5.672;2023-08-06T04:10:13;24.50;;;22.10;;
36433;SDS011;31691;51.972;5.672;2023-08-06T04:20:18;22.70;;;20.30;;
36433;SDS011;31691;51.972;5.672;2023-08-06T04:30:22;22.20;;;19.90;;
36433;SDS011;31691;51.972;5.672;2023-08-06T04:40:26;22.40;;;19.83;;
36433;SDS011;31691;51.972;5.672;2023-08-06T04:50:30;26.80;;;20.60;;
36433;SDS011;31691;51.972;5.672;2023-08-06T05:00:35;22.45;;;18.60;;
36433;SDS011;31691;51.972;5.672;2023-08-06T05:10:42;19.88;;;17.85;;
36433;SDS011;31691;51.972;5.672;2023-08-06T05:15:45;21.00;;;18.75;;
36433;SDS011;31691;51.972;5.672;2023-08-06T05:20:48;20.58;;;18.48;;
36433;SDS011;31691;51.972;5.672;2023-08-06T05:25:50;19.67;;;17.75;;
36433;SDS011;31691;51.972;5.672;2023-08-06T05:35:54;20.02;;;18.05;;
36433;SDS011;31691;51.972;5.672;2023-08-06T05:45:58;20.38;;;18.45;;
36433;SDS011;31691;51.972;5.672;2023-08-06T05:51:01;21.05;;;19.23;;
36433;SDS011;31691;51.972;5.672;2023-08-06T05:56:03;21.52;;;19.42;;
36433;SDS011;31691;51.972;5.672;2023-08-06T06:01:05;19.77;;;18.08;;
36433;SDS011;31691;51.972;5.672;2023-08-06T06:06:07;22.13;;;19.95;;
36433;SDS011;31691;51.972;5.672;2023-08-06T06:11:10;24.35;;;21.88;;
36433;SDS011;31691;51.972;5.672;2023-08-06T06:16:12;25.05;;;21.92;;
36433;SDS011;31691;51.972;5.672;2023-08-06T06:21:14;25.65;;;21.52;;
36433;SDS011;31691;51.972;5.672;2023-08-06T06:26:17;23.67;;;21.40;;
36433;SDS011;31691;51.972;5.672;2023-08-06T06:31:19;25.92;;;23.27;;
36433;SDS011;31691;51.972;5.672;2023-08-06T06:36:22;26.58;;;23.83;;
36433;SDS011;31691;51.972;5.672;2023-08-06T06:41:25;29.83;;;24.35;;
36433;SDS011;31691;51.972;5.672;2023-08-06T06:46:28;26.42;;;23.67;;
36433;SDS011;31691;51.972;5.672;2023-08-06T06:51:30;27.58;;;24.92;;
36433;SDS011;31691;51.972;5.672;2023-08-06T06:56:33;28.60;;;25.67;;
36433;SDS011;31691;51.972;5.672;2023-08-06T07:01:35;27.35;;;24.65;;
36433;SDS011;31691;51.972;5.672;2023-08-06T07:06:38;27.38;;;24.52;;
36433;SDS011;31691;51.972;5.672;2023-08-06T07:11:40;28.45;;;25.58;;
36433;SDS011;31691;51.972;5.672;2023-08-06T07:16:45;28.85;;;25.88;;
36433;SDS011;31691;51.972;5.672;2023-08-06T07:21:47;33.03;;;29.73;;
36433;SDS011;31691;51.972;5.672;2023-08-06T07:26:49;32.08;;;28.67;;
36433;SDS011;31691;51.972;5.672;2023-08-06T07:31:51;30.75;;;27.67;;
36433;SDS011;31691;51.972;5.672;2023-08-06T07:36:54;32.72;;;29.23;;
36433;SDS011;31691;51.972;5.672;2023-08-06T07:41:56;33.22;;;29.98;;
36433;SDS011;31691;51.972;5.672;2023-08-06T07:46:59;33.75;;;30.23;;
36433;SDS011;31691;51.972;5.672;2023-08-06T07:52:01;34.88;;;31.27;;
36433;SDS011;31691;51.972;5.672;2023-08-06T07:57:04;34.65;;;31.17;;
36433;SDS011;31691;51.972;5.672;2023-08-06T08:02:07;33.72;;;30.23;;
36433;SDS011;31691;51.972;5.672;2023-08-06T08:07:09;34.88;;;31.13;;
36433;SDS011;31691;51.972;5.672;2023-08-06T08:12:12;33.08;;;29.70;;
36433;SDS011;31691;51.972;5.672;2023-08-06T08:17:14;32.60;;;29.33;;
36433;SDS011;31691;51.972;5.672;2023-08-06T08:22:17;31.42;;;28.40;;
36433;SDS011;31691;51.972;5.672;2023-08-06T08:27:19;31.17;;;27.88;;
36433;SDS011;31691;51.972;5.672;2023-08-06T08:32:21;28.73;;;26.02;;
36433;SDS011;31691;51.972;5.672;2023-08-06T08:37:23;25.02;;;22.85;;
36433;SDS011;31691;51.972;5.672;2023-08-06T08:42:25;23.05;;;20.95;;
36433;SDS011;31691;51.972;5.672;2023-08-06T08:47:28;27.50;;;24.63;;
36433;SDS011;31691;51.972;5.672;2023-08-06T08:52:30;28.80;;;26.10;;
36433;SDS011;31691;51.972;5.672;2023-08-06T08:57:35;22.25;;;20.25;;
36433;SDS011;31691;51.972;5.672;2023-08-06T09:02:37;17.70;;;16.40;;
36433;SDS011;31691;51.972;5.672;2023-08-06T09:07:42;16.48;;;15.05;;
36433;SDS011;31691;51.972;5.672;2023-08-06T09:12:49;20.17;;;17.38;;
36433;SDS011;31691;51.972;5.672;2023-08-06T09:17:53;15.00;;;13.95;;
36433;SDS011;31691;51.972;5.672;2023-08-06T09:22:56;15.20;;;14.18;;
36433;SDS011;31691;51.972;5.672;2023-08-06T09:33:00;14.10;;;13.10;;
36433;SDS011;31691;51.972;5.672;2023-08-06T09:38:06;15.05;;;13.95;;
36433;SDS011;31691;51.972;5.672;2023-08-06T09:43:11;15.68;;;14.48;;
36433;SDS011;31691;51.972;5.672;2023-08-06T09:48:14;15.13;;;14.02;;
36433;SDS011;31691;51.972;5.672;2023-08-06T09:58:20;18.70;;;14.55;;
36433;SDS011;31691;51.972;5.672;2023-08-06T10:03:24;28.35;;;15.13;;
36433;SDS011;31691;51.972;5.672;2023-08-06T10:08:27;19.33;;;14.88;;
36433;SDS011;31691;51.972;5.672;2023-08-06T10:13:30;31.63;;;15.20;;
36433;SDS011;31691;51.972;5.672;2023-08-06T10:18:35;17.23;;;15.73;;
36433;SDS011;31691;51.972;5.672;2023-08-06T10:23:40;17.77;;;16.27;;
36433;SDS011;31691;51.972;5.672;2023-08-06T10:28:43;18.05;;;16.17;;
36433;SDS011;31691;51.972;5.672;2023-08-06T10:38:48;20.50;;;16.88;;
36433;SDS011;31691;51.972;5.672;2023-08-06T10:43:51;18.77;;;16.88;;
36433;SDS011;31691;51.972;5.672;2023-08-06T10:53:56;19.70;;;17.73;;
36433;SDS011;31691;51.972;5.672;2023-08-06T10:58:59;20.23;;;18.27;;
36433;SDS011;31691;51.972;5.672;2023-08-06T11:04:02;20.23;;;18.15;;
36433;SDS011;31691;51.972;5.672;2023-08-06T11:09:06;20.15;;;17.70;;
36433;SDS011;31691;51.972;5.672;2023-08-06T11:19:16;20.20;;;16.98;;
36433;SDS011;31691;51.972;5.672;2023-08-06T11:29:21;18.73;;;16.85;;
36433;SDS011;31691;51.972;5.672;2023-08-06T11:34:24;17.45;;;15.80;;
36433;SDS011;31691;51.972;5.672;2023-08-06T11:39:27;16.90;;;15.23;;
36433;SDS011;31691;51.972;5.672;2023-08-06T11:44:29;17.08;;;15.25;;
36433;SDS011;31691;51.972;5.672;2023-08-06T11:49:38;16.77;;;14.95;;
36433;SDS011;31691;51.972;5.672;2023-08-06T11:55:06;18.25;;;15.32;;
36433;SDS011;31691;51.972;5.672;2023-08-06T12:00:12;16.33;;;14.52;;
36433;SDS011;31691;51.972;5.672;2023-08-06T12:05:16;20.98;;;15.32;;
36433;SDS011;31691;51.972;5.672;2023-08-06T12:10:22;16.35;;;14.75;;
36433;SDS011;31691;51.972;5.672;2023-08-06T12:15:26;17.55;;;15.73;;
36433;SDS011;31691;51.972;5.672;2023-08-06T12:25:30;17.17;;;15.57;;
36433;SDS011;31691;51.972;5.672;2023-08-06T12:30:33;16.15;;;14.65;;
36433;SDS011;31691;51.972;5.672;2023-08-06T12:40:37;16.77;;;15.07;;
36433;SDS011;31691;51.972;5.672;2023-08-06T12:45:44;15.70;;;14.30;;
36433;SDS011;31691;51.972;5.672;2023-08-06T12:50:46;15.30;;;13.30;;
36433;SDS011;31691;51.972;5.672;2023-08-06T12:55:48;16.00;;;13.20;;
36433;SDS011;31691;51.972;5.672;2023-08-06T13:00:51;13.40;;;12.18;;
36433;SDS011;31691;51.972;5.672;2023-08-06T13:10:55;14.30;;;12.13;;
36433;SDS011;31691;51.972;5.672;2023-08-06T13:20:59;12.10;;;11.05;;
36433;SDS011;31691;51.972;5.672;2023-08-06T13:31:03;11.77;;;10.77;;
36433;SDS011;31691;51.972;5.672;2023-08-06T13:36:06;12.40;;;11.15;;
36433;SDS011;31691;51.972;5.672;2023-08-06T13:46:10;15.07;;;12.43;;
36433;SDS011;31691;51.972;5.672;2023-08-06T13:51:18;14.02;;;12.77;;
36433;SDS011;31691;51.972;5.672;2023-08-06T13:56:22;13.13;;;12.13;;
36433;SDS011;31691;51.972;5.672;2023-08-06T14:01:25;13.55;;;12.15;;
36433;SDS011;31691;51.972;5.672;2023-08-06T14:06:47;15.20;;;13.60;;
36433;SDS011;31691;51.972;5.672;2023-08-06T14:11:49;14.18;;;12.95;;
36433;SDS011;31691;51.972;5.672;2023-08-06T14:21:54;13.30;;;12.18;;
36433;SDS011;31691;51.972;5.672;2023-08-06T14:26:57;14.38;;;12.95;;
36433;SDS011;31691;51.972;5.672;2023-08-06T14:37:01;14.73;;;12.30;;
36433;SDS011;31691;51.972;5.672;2023-08-06T14:42:04;13.77;;;12.45;;
36433;SDS011;31691;51.972;5.672;2023-08-06T14:47:06;15.05;;;12.38;;
36433;SDS011;31691;51.972;5.672;2023-08-06T14:57:10;14.48;;;13.00;;
36433;SDS011;31691;51.972;5.672;2023-08-06T15:02:14;14.05;;;12.65;;
36433;SDS011;31691;51.972;5.672;2023-08-06T15:12:18;16.38;;;12.40;;
36433;SDS011;31691;51.972;5.672;2023-08-06T15:17:21;13.38;;;12.32;;
36433;SDS011;31691;51.972;5.672;2023-08-06T15:22:25;13.57;;;12.45;;
36433;SDS011;31691;51.972;5.672;2023-08-06T15:27:27;14.35;;;13.13;;
36433;SDS011;31691;51.972;5.672;2023-08-06T15:32:30;14.70;;;13.40;;
36433;SDS011;31691;51.972;5.672;2023-08-06T15:37:32;14.00;;;12.77;;
36433;SDS011;31691;51.972;5.672;2023-08-06T15:47:36;14.32;;;12.95;;
36433;SDS011;31691;51.972;5.672;2023-08-06T15:52:42;12.07;;;10.10;;
36433;SDS011;31691;51.972;5.672;2023-08-06T16:02:46;13.23;;;11.23;;
36433;SDS011;31691;51.972;5.672;2023-08-06T16:12:52;10.98;;;10.00;;
36433;SDS011;31691;51.972;5.672;2023-08-06T16:22:56;13.13;;;9.80;;
36433;SDS011;31691;51.972;5.672;2023-08-06T16:33:00;16.80;;;9.93;;
36433;SDS011;31691;51.972;5.672;2023-08-06T16:38:03;14.45;;;9.77;;
36433;SDS011;31691;51.972;5.672;2023-08-06T16:48:07;17.90;;;10.00;;
36433;SDS011;31691;51.972;5.672;2023-08-06T16:58:12;17.03;;;9.33;;
36433;SDS011;31691;51.972;5.672;2023-08-06T17:08:17;12.90;;;9.40;;
36433;SDS011;31691;51.972;5.672;2023-08-06T17:18:22;12.73;;;7.90;;
36433;SDS011;31691;51.972;5.672;2023-08-06T17:23:24;14.70;;;8.15;;
36433;SDS011;31691;51.972;5.672;2023-08-06T17:33:29;11.82;;;8.20;;
36433;SDS011;31691;51.972;5.672;2023-08-06T17:43:33;11.60;;;7.90;;
36433;SDS011;31691;51.972;5.672;2023-08-06T17:48:35;11.80;;;8.85;;
36433;SDS011;31691;51.972;5.672;2023-08-06T17:53:38;12.13;;;7.88;;
36433;SDS011;31691;51.972;5.672;2023-08-06T17:58:40;11.98;;;7.50;;
36433;SDS011;31691;51.972;5.672;2023-08-06T18:03:43;16.45;;;8.05;;
36433;SDS011;31691;51.972;5.672;2023-08-06T18:08:47;12.48;;;7.47;;
36433;SDS011;31691;51.972;5.672;2023-08-06T18:18:51;12.85;;;7.65;;
36433;SDS011;31691;51.972;5.672;2023-08-06T18:23:55;13.00;;;9.05;;
36433;SDS011;31691;51.972;5.672;2023-08-06T18:28:57;22.70;;;10.30;;
36433;SDS011;31691;51.972;5.672;2023-08-06T18:39:02;14.07;;;9.02;;
36433;SDS011;31691;51.972;5.672;2023-08-06T18:44:05;15.57;;;9.55;;
36433;SDS011;31691;51.972;5.672;2023-08-06T18:54:09;15.73;;;8.30;;
36433;SDS011;31691;51.972;5.672;2023-08-06T18:59:11;19.30;;;8.48;;
36433;SDS011;31691;51.972;5.672;2023-08-06T19:04:15;15.30;;;9.27;;
36433;SDS011;31691;51.972;5.672;2023-08-06T19:09:18;19.98;;;8.77;;
36433;SDS011;31691;51.972;5.672;2023-08-06T19:19:22;11.18;;;9.93;;
36433;SDS011;31691;51.972;5.672;2023-08-06T19:29:26;15.18;;;11.70;;
36433;SDS011;31691;51.972;5.672;2023-08-06T19:34:28;15.15;;;10.35;;
36433;SDS011;31691;51.972;5.672;2023-08-06T19:44:33;12.10;;;8.88;;
36433;SDS011;31691;51.972;5.672;2023-08-06T19:49:36;15.93;;;9.25;;
36433;SDS011;31691;51.972;5.672;2023-08-06T19:54:38;14.25;;;8.85;;
36433;SDS011;31691;51.972;5.672;2023-08-06T19:59:41;17.88;;;9.32;;
36433;SDS011;31691;51.972;5.672;2023-08-06T20:04:43;14.15;;;8.90;;
36433;SDS011;31691;51.972;5.672;2023-08-06T20:09:45;11.75;;;9.93;;
36433;SDS011;31691;51.972;5.672;2023-08-06T20:14:48;12.00;;;10.10;;
36433;SDS011;31691;51.972;5.672;2023-08-06T20:24:52;12.50;;;11.32;;
36433;SDS011;31691;51.972;5.672;2023-08-06T20:29:54;16.08;;;11.57;;
36433;SDS011;31691;51.972;5.672;2023-08-06T20:34:57;13.02;;;11.63;;
36433;SDS011;31691;51.972;5.672;2023-08-06T20:45:01;15.95;;;12.95;;
36433;SDS011;31691;51.972;5.672;2023-08-06T20:50:04;16.63;;;12.50;;
36433;SDS011;31691;51.972;5.672;2023-08-06T20:55:07;16.25;;;11.40;;
36433;SDS011;31691;51.972;5.672;2023-08-06T21:00:09;14.48;;;11.18;;
36433;SDS011;31691;51.972;5.672;2023-08-06T21:05:12;14.95;;;11.25;;
36433;SDS011;31691;51.972;5.672;2023-08-06T21:10:15;12.05;;;11.05;;
36433;SDS011;31691;51.972;5.672;2023-08-06T21:15:18;17.13;;;10.82;;
36433;SDS011;31691;51.972;5.672;2023-08-06T21:20:20;11.35;;;9.60;;
36433;SDS011;31691;51.972;5.672;2023-08-06T21:25:23;10.65;;;9.55;;
36433;SDS011;31691;51.972;5.672;2023-08-06T21:30:25;10.77;;;9.38;;
36433;SDS011;31691;51.972;5.672;2023-08-06T21:40:29;11.63;;;10.50;;
36433;SDS011;31691;51.972;5.672;2023-08-06T21:45:35;12.10;;;10.82;;
36433;SDS011;31691;51.972;5.672;2023-08-06T21:55:39;13.70;;;11.20;;
36433;SDS011;31691;51.972;5.672;2023-08-06T22:00:42;16.13;;;11.52;;
36433;SDS011;31691;51.972;5.672;2023-08-06T22:05:44;17.40;;;10.98;;
36433;SDS011;31691;51.972;5.672;2023-08-06T22:10:47;18.05;;;11.80;;
36433;SDS011;31691;51.972;5.672;2023-08-06T22:15:50;15.43;;;12.00;;
36433;SDS011;31691;51.972;5.672;2023-08-06T22:20:55;20.95;;;12.95;;
36433;SDS011;31691;51.972;5.672;2023-08-06T22:25:58;14.50;;;11.77;;
36433;SDS011;31691;51.972;5.672;2023-08-06T22:36:02;22.75;;;12.40;;
36433;SDS011;31691;51.972;5.672;2023-08-06T22:46:09;23.38;;;13.93;;
36433;SDS011;31691;51.972;5.672;2023-08-06T22:56:13;25.65;;;15.32;;
36433;SDS011;31691;51.972;5.672;2023-08-06T23:06:18;17.88;;;14.38;;
36433;SDS011;31691;51.972;5.672;2023-08-06T23:16:23;24.05;;;13.95;;
36433;SDS011;31691;51.972;5.672;2023-08-06T23:26:27;22.77;;;13.65;;
36433;SDS011;31691;51.972;5.672;2023-08-06T23:36:31;25.13;;;14.73;;
36433;SDS011;31691;51.972;5.672;2023-08-06T23:41:34;22.17;;;14.95;;
36433;SDS011;31691;51.972;5.672;2023-08-06T23:46:36;20.90;;;15.00;;
36433;SDS011;31691;51.972;5.672;2023-08-06T23:51:39;22.50;;;13.15;;
36433;SDS011;31691;51.972;5.672;2023-08-06T23:56:41;15.27;;;11.48;;
